< < Back
Terminal Aerodrome Forecast


Current Version              Previous Versions:   1  2  3  4  5  6  7  8  9  

Terminal Aerodrome Forecast

373
FTUS42 KFFC 302225 AAA
TAFCSG
TAF AMD
KCSG 302225Z 3022/3118 01006KT P6SM FEW040 SCT050 BKN070
      TEMPO 3022/3024 VRB15G30KT TSRA BKN060CB
     FM310000 25007KT P6SM SCT060
     FM311000 00000KT 4SM BR SCT035
     FM311200 24003KT P6SM BKN035 PROB30 3115/3118 SHRA OVC025=



Latest METAR

307
SAUS70 KWBC 310500 RRA
MTRCSG
METAR KCSG 310451Z AUTO 12003KT 10SM CLR 25/22 A3004 RMK AO2 SLP165
T02500222 403440239 $


USA.gov is the U.S. government's official web portal to all federal, state and local government web resources and services.